Time;durP1;ratioP1;P1;durP2;ratioP2;P2;SDS_P1;SDS_P2;PMS_P1;PMS_P2;Temp;Humidity;BMP_temperature;BMP_pressure;BME280_temperature;BME280_humidity;BME280_pressure;Samples;Min_cycle;Max_cycle;Signal;HPM_P1;HPM_P2
2023/05/18 04:54:52;;;;;;;;;;;;;;;;;;;;;
2023/05/18 05:36:43;;;;;;;8.82;3.70;;;;;;;18.56;33.34;96175.38;6038180;23;20676;-85
2023/05/18 05:44:26;;;;;;;;;;;;;;;;;;;;;
2023/05/18 05:47:48;;;;;;;4.68;2.78;;;;;;;18.55;33.26;96173.72;5980460;24;20465;-84
2023/05/18 06:34:44;;;;;;;7.85;2.70;;;;;;;18.55;32.57;96184.25;6091907;23;20194;-83
2023/05/18 06:38:03;;;;;;;;;;;;;;;;;;;;;
2023/05/18 06:52:09;;;;;;;6.10;2.80;;;;;;;19.06;31.98;96186.97;6039979;23;20305;-82
2023/05/18 07:02:03;;;;;;;8.23;2.75;;;;;;;18.63;33.15;96184.97;5958024;24;20730;-82
2023/05/18 07:04:31;;;;;;;5.32;2.53;;;;;;;19.57;32.19;96186.94;5943900;23;20170;-81
2023/05/18 07:07:02;;;;;;;8.50;2.90;;;;;;;19.46;31.27;96194.31;5987286;23;20171;-82
2023/05/18 07:09:37;;;;;;;7.25;2.90;;;;;;;17.53;35.06;96187.28;5986595;23;20630;-79
2023/05/18 07:12:13;;;;;;;4.07;2.55;;;;;;;19.16;32.39;96190.09;5989201;23;20182;-81
2023/05/18 08:11:49;;;;;;;9.47;4.87;;;;;;;15.34;42.17;96185.22;6155135;23;20203;-78
2023/05/18 08:43:32;;;;;;;;;;;;;;;;;;;;;
2023/05/18 08:46:05;;;;;;;11.53;5.10;;;;;;;13.80;46.90;96166.06;6211683;23;20249;-81
2023/05/18 08:48:31;;;;;;;9.07;4.13;;;;;;;14.32;47.00;96168.69;6189322;23;20180;-83
2023/05/18 08:50:59;;;;;;;9.33;4.43;;;;;;;14.06;47.54;96167.88;6163988;23;20523;-80
2023/05/18 08:53:25;;;;;;;7.10;4.00;;;;;;;14.59;46.00;96166.88;6206088;22;20296;-81
2023/05/18 08:56:00;;;;;;;12.70;5.60;;;;;;;13.87;46.70;96159.28;6181269;23;20181;-82
2023/05/18 08:58:35;;;;;;;8.90;5.20;;;;;;;14.03;45.98;96160.31;6168800;23;20146;-80
2023/05/18 09:01:01;;;;;;;9.13;4.70;;;;;;;13.73;46.59;96161.59;6219033;23;20169;-83
2023/05/18 09:03:26;;;;;;;10.00;4.17;;;;;;;13.78;47.73;96168.00;6167151;23;20248;-82
2023/05/18 09:05:52;;;;;;;8.10;4.40;;;;;;;13.78;46.08;96159.34;6166521;23;20220;-82
2023/05/18 09:08:18;;;;;;;6.80;4.50;;;;;;;14.08;47.69;96158.91;6160460;23;20162;-79
2023/05/18 09:10:44;;;;;;;9.27;4.00;;;;;;;13.76;47.85;96161.28;6189607;23;20174;-79
2023/05/18 10:06:27;;;;;;;10.93;3.93;;;;;;;14.37;43.00;96142.06;6267984;22;20204;-79
2023/05/18 10:08:59;;;;;;;5.97;3.50;;;;;;;13.79;43.00;96137.50;6250697;22;20192;-81
2023/05/18 10:11:26;;;;;;;8.60;3.63;;;;;;;14.36;42.35;96154.31;6249994;22;20570;-79
2023/05/18 10:13:54;;;;;;;6.13;3.53;;;;;;;14.91;42.93;96151.28;6276406;22;20233;-80
2023/05/18 10:16:19;;;;;;;8.27;3.57;;;;;;;15.15;41.41;96147.09;6275350;22;20551;-81
2023/05/18 10:18:45;;;;;;;9.70;3.70;;;;;;;15.34;42.40;96145.97;6249913;22;20158;-79
2023/05/18 10:21:13;;;;;;;10.50;4.03;;;;;;;15.58;41.48;96151.22;6274065;22;20675;-82
2023/05/18 10:23:39;;;;;;;11.47;3.30;;;;;;;16.02;40.21;96149.06;6273919;22;20622;-80
2023/05/18 10:26:10;;;;;;;11.07;3.73;;;;;;;15.84;40.32;96144.03;6279998;22;20145;-80
2023/05/18 10:28:40;;;;;;;7.25;3.88;;;;;;;15.91;39.96;96144.19;6276652;22;20175;-78
2023/05/18 10:31:05;;;;;;;9.13;4.10;;;;;;;15.89;40.93;96137.47;6276847;22;20195;-78
2023/05/18 10:33:31;;;;;;;8.27;3.70;;;;;;;15.67;40.36;96152.88;6274650;22;20149;-80
2023/05/18 10:35:56;;;;;;;10.57;4.00;;;;;;;15.57;40.57;96141.72;6249479;22;20198;-83
2023/05/18 10:38:26;;;;;;;7.60;3.60;;;;;;;16.08;40.87;96143.19;6250556;22;20198;-80
2023/05/18 10:40:54;;;;;;;9.13;3.70;;;;;;;15.62;40.19;96144.69;6276417;22;20169;-79
2023/05/18 10:43:21;;;;;;;8.85;3.53;;;;;;;15.20;40.28;96160.50;6249261;22;20179;-79
2023/05/18 10:45:48;;;;;;;7.17;3.63;;;;;;;15.37;39.56;96156.09;6248975;22;20199;-79
2023/05/18 10:48:40;;;;;;;10.60;3.90;;;;;;;16.27;39.00;96144.59;6248756;22;20156;-83
2023/05/18 10:51:12;;;;;;;7.88;3.67;;;;;;;16.66;38.18;96144.63;6273113;22;20172;-85
2023/05/18 10:53:38;;;;;;;7.97;3.38;;;;;;;15.69;39.30;96137.00;6273669;22;20163;-85
2023/05/18 10:56:04;;;;;;;6.18;3.40;;;;;;;15.57;40.48;96136.50;6247693;22;20176;-83
2023/05/18 10:58:30;;;;;;;8.65;3.38;;;;;;;16.28;38.56;96137.56;6248209;22;20533;-84
2023/05/18 11:01:02;;;;;;;9.73;4.47;;;;;;;15.58;38.69;96143.34;6248224;22;20322;-85
2023/05/18 11:03:31;;;;;;;10.10;3.72;;;;;;;16.40;38.73;96144.88;6247459;22;20598;-84
2023/05/18 11:06:09;;;;;;;9.52;3.80;;;;;;;16.44;37.87;96142.75;6276715;22;20175;-86
2023/05/18 11:08:44;;;;;;;11.57;4.00;;;;;;;14.96;40.75;96142.97;6278395;22;20178;-85
2023/05/18 11:11:13;;;;;;;10.83;3.77;;;;;;;14.95;40.61;96147.38;6254558;22;20179;-84
2023/05/18 11:13:43;;;;;;;10.05;3.47;;;;;;;14.95;41.41;96134.31;6257226;22;20593;-86
2023/05/18 11:16:19;;;;;;;9.60;3.53;;;;;;;15.48;41.11;96127.81;6282989;22;20152;-87
2023/05/18 11:18:48;;;;;;;7.60;3.28;;;;;;;15.13;41.65;96141.19;6263364;22;20649;-86
2023/05/18 11:21:50;;;;;;;5.63;3.13;;;;;;;16.27;40.47;96135.94;6315658;22;20220;-86
2023/05/18 11:24:31;;;;;;;9.45;3.63;;;;;;;15.77;40.04;96126.53;6190309;23;20158;-86
2023/05/18 11:27:15;;;;;;;8.43;3.63;;;;;;;16.04;40.73;96126.16;6185487;23;20361;-88
2023/05/18 11:29:46;;;;;;;8.95;3.78;;;;;;;15.50;40.02;96128.47;6186277;23;20147;-87
2023/05/18 11:32:27;;;;;;;9.27;3.63;;;;;;;15.55;40.33;96115.72;6185920;23;20536;-85
2023/05/18 11:34:55;;;;;;;7.10;3.77;;;;;;;15.68;40.04;96125.72;6208561;23;20186;-88
2023/05/18 11:37:39;;;;;;;9.53;3.63;;;;;;;15.94;38.62;96115.03;6157283;23;20303;-84
2023/05/18 11:40:19;;;;;;;10.37;3.57;;;;;;;16.27;38.15;96118.41;6210011;23;20169;-85
2023/05/18 11:42:58;;;;;;;10.88;3.50;;;;;;;15.38;38.88;96124.56;6186740;23;20142;-84
2023/05/18 11:45:24;;;;;;;4.63;2.83;;;;;;;15.27;40.25;96123.06;6160347;23;20158;-79
2023/05/18 11:47:55;;;;;;;7.57;3.93;;;;;;;15.16;40.72;96117.31;6186824;23;20664;-80
2023/05/18 11:50:21;;;;;;;7.47;4.15;;;;;;;14.97;39.43;96121.88;6186749;23;20208;-80
2023/05/18 11:52:48;;;;;;;10.37;4.30;;;;;;;15.37;38.81;96129.91;6161481;23;20158;-83
2023/05/18 11:55:36;;;;;;;7.47;3.67;;;;;;;15.42;39.47;96120.63;6185276;23;20189;-81
2023/05/18 11:58:02;;;;;;;10.57;3.60;;;;;;;15.73;38.46;96123.44;6223412;22;20239;-82
2023/05/18 12:00:29;;;;;;;12.37;4.30;;;;;;;15.89;39.08;96126.97;6305813;22;20811;-82
2023/05/18 12:02:55;;;;;;;9.73;3.50;;;;;;;15.61;37.60;96116.88;6253135;22;20171;-82
2023/05/18 12:05:48;;;;;;;6.80;3.22;;;;;;;15.51;38.62;96103.91;6248131;22;20160;-89
2023/05/18 12:19:22;;;;;;;6.50;2.80;;;;;;;17.77;36.76;96106.69;6256785;22;20231;-84
2023/05/18 12:21:53;;;;;;;9.65;3.40;;;;;;;17.34;36.07;96108.19;6274735;22;20677;-85
2023/05/18 12:24:21;;;;;;;7.15;3.03;;;;;;;17.25;35.26;96108.25;6247750;22;20726;-85
2023/05/18 12:26:47;;;;;;;4.90;2.80;;;;;;;17.78;35.76;96096.00;6248006;22;20156;-83
2023/05/18 12:29:18;;;;;;;7.32;3.05;;;;;;;17.62;36.63;96093.50;6249947;22;20164;-84
2023/05/18 12:31:44;;;;;;;7.07;3.10;;;;;;;17.28;36.47;96101.81;6252538;22;20553;-82
2023/05/18 12:34:11;;;;;;;8.68;3.58;;;;;;;16.73;37.15;96096.75;6273927;22;20236;-83
2023/05/18 12:36:42;;;;;;;10.65;3.30;;;;;;;16.90;36.79;96109.63;6274589;22;20166;-85
2023/05/18 12:39:07;;;;;;;11.77;3.40;;;;;;;15.97;37.95;96095.53;6249871;22;20152;-86
2023/05/18 12:45:05;;;;;;;6.32;2.97;;;;;;;16.01;37.60;96102.09;6213564;23;20183;-84
2023/05/18 12:47:54;;;;;;;7.32;3.33;;;;;;;16.66;35.83;96097.41;6214514;23;20566;-88
2023/05/18 14:46:08;;;;;;;6.97;3.05;;;;;;;16.33;36.31;96041.69;6047600;23;20695;-83
2023/05/18 14:53:29;;;;;;;;;;;;;;;;;;;;;
2023/05/18 15:17:16;;;;;;;;;;;;;;;;;;;;;
2023/05/18 15:21:00;;;;;;;;;;;;;;;;;;;;;
2023/05/18 15:28:06;;;;;;;;;;;;;;;;;;;;;
2023/05/18 15:35:23;;;;;;;7.97;2.65;;;;;;;16.43;36.89;96021.34;5871385;24;20589;-85
2023/05/18 15:49:25;;;;;;;6.20;2.80;;;;;;;16.00;37.25;96016.66;5875805;24;20230;-85
2023/05/18 15:59:31;;;;;;;6.50;2.90;;;;;;;16.67;36.21;96020.38;5920338;24;20219;-84
2023/05/18 16:09:54;;;;;;;;;;;;;;;;;;;;;
2023/05/18 16:45:42;;;;;;;;;;;;;;;;;;;;;
2023/05/18 17:00:06;;;;;;;;;;;;;;;;;;;;;
2023/05/18 17:07:11;;;;;;;4.25;2.50;;;;;;;15.12;39.01;96027.09;5769783;24;20196;-86
2023/05/18 17:21:59;;;;;;;;;;;;;;;;;;;;;
2023/05/18 19:57:18;;;;;;;7.87;2.37;;;;;;;13.23;45.24;96092.56;5896157;24;20258;-85
2023/05/18 20:12:42;;;;;;;7.77;2.27;;;;;;;13.02;45.32;96112.88;6254282;22;20207;-77
2023/05/18 20:15:08;;;;;;;8.63;2.70;;;;;;;13.03;45.55;96104.09;6280428;22;20943;-80
2023/05/18 20:17:35;;;;;;;5.37;2.83;;;;;;;12.95;45.41;96101.41;6279909;22;20152;-79
2023/05/18 20:20:00;;;;;;;5.57;2.73;;;;;;;13.01;46.05;96113.84;6279862;22;20451;-81
2023/05/18 20:22:26;;;;;;;7.47;2.90;;;;;;;12.96;46.04;96109.06;6312183;22;20152;-82
2023/05/18 20:24:52;;;;;;;7.70;2.73;;;;;;;12.83;46.27;96103.41;6278703;22;20174;-83
2023/05/18 20:27:17;;;;;;;8.17;2.77;;;;;;;12.93;45.89;96108.56;6253157;22;20284;-83
2023/05/18 20:29:43;;;;;;;9.50;2.63;;;;;;;12.85;46.69;96111.91;6278600;22;20152;-80
2023/05/18 20:32:08;;;;;;;7.97;2.50;;;;;;;12.83;46.16;96113.84;6253776;22;20184;-84
2023/05/18 20:34:34;;;;;;;9.57;2.90;;;;;;;12.73;46.65;96113.91;6311576;22;20164;-86
2023/05/18 20:37:00;;;;;;;4.97;2.50;;;;;;;12.72;46.42;96107.06;6287928;22;20199;-82
2023/05/18 20:39:27;;;;;;;7.47;2.43;;;;;;;12.71;46.57;96112.38;6284592;22;20163;-85
2023/05/18 20:41:57;;;;;;;6.07;2.50;;;;;;;12.68;46.58;96110.91;6314145;22;20179;-85
2023/05/18 20:44:23;;;;;;;5.93;2.57;;;;;;;12.53;46.77;96111.53;6261949;22;20246;-86
2023/05/18 20:46:51;;;;;;;7.83;2.47;;;;;;;12.48;46.52;96109.38;6315715;22;20148;-84
2023/05/18 20:49:20;;;;;;;7.80;2.33;;;;;;;12.57;46.97;96111.13;6316080;22;20148;-86
2023/05/18 20:51:46;;;;;;;5.40;2.70;;;;;;;12.48;46.63;96104.19;6290547;22;20203;-84
2023/05/18 20:54:11;;;;;;;9.70;3.17;;;;;;;12.41;47.38;96105.72;6288947;22;20144;-85
2023/05/18 20:56:37;;;;;;;6.60;2.40;;;;;;;12.24;47.73;96109.91;6287257;22;20201;-86
2023/05/18 20:59:02;;;;;;;6.43;2.53;;;;;;;12.22;47.81;96108.41;6314206;22;20195;-84
2023/05/18 21:01:27;;;;;;;8.47;3.07;;;;;;;11.99;47.78;96107.94;6315475;22;20167;-84
2023/05/18 21:03:57;;;;;;;6.80;3.10;;;;;;;12.12;47.91;96104.06;6285839;22;20178;-85
2023/05/18 21:06:41;;;;;;;5.13;2.83;;;;;;;12.07;48.33;96101.06;6256963;22;20147;-84
2023/05/18 21:09:07;;;;;;;7.43;2.80;;;;;;;11.88;48.51;96108.94;6261917;22;20173;-86
2023/05/18 21:11:35;;;;;;;5.93;3.03;;;;;;;11.92;48.47;96105.09;6261474;22;20258;-85
2023/05/18 21:14:00;;;;;;;6.67;2.50;;;;;;;11.92;48.90;96107.69;6287056;22;20152;-86
2023/05/18 21:16:26;;;;;;;7.87;2.80;;;;;;;11.78;48.38;96108.94;6285300;22;20230;-84
2023/05/18 21:18:56;;;;;;;6.60;2.70;;;;;;;11.61;49.19;96105.28;6285922;22;20178;-86
2023/05/18 21:21:21;;;;;;;5.67;2.40;;;;;;;11.70;49.05;96101.03;6286440;22;20235;-86
2023/05/18 21:23:57;;;;;;;6.27;2.40;;;;;;;11.69;49.22;96103.78;6286814;22;20162;-85
2023/05/18 21:26:25;;;;;;;5.20;2.43;;;;;;;11.71;49.47;96097.47;6262085;22;20147;-84
2023/05/18 21:28:52;;;;;;;5.10;2.60;;;;;;;11.62;49.69;96100.91;6259746;22;20234;-83
2023/05/18 21:31:21;;;;;;;6.30;2.63;;;;;;;11.57;49.74;96092.69;6285420;22;20179;-85
2023/05/18 21:33:56;;;;;;;9.80;3.00;;;;;;;11.44;50.74;96098.19;6287491;22;20647;-84
2023/05/18 21:36:32;;;;;;;6.97;2.93;;;;;;;11.32;50.53;96099.31;6257874;22;20202;-82
2023/05/18 21:38:59;;;;;;;9.63;3.23;;;;;;;11.36;50.63;96098.06;6286924;22;20136;-85
2023/05/18 21:41:32;;;;;;;8.10;3.57;;;;;;;11.26;51.30;96098.09;6260131;22;20597;-84
2023/05/18 21:43:58;;;;;;;8.23;3.00;;;;;;;11.29;51.22;96094.38;6284840;22;20159;-84
2023/05/18 21:46:26;;;;;;;5.70;2.60;;;;;;;11.25;51.35;96095.63;6284365;22;20243;-84
2023/05/18 21:48:57;;;;;;;5.17;2.90;;;;;;;11.23;51.68;96095.78;6313842;22;20481;-84
2023/05/18 21:51:29;;;;;;;5.23;2.50;;;;;;;11.16;51.78;96105.06;6284669;22;20249;-84
2023/05/18 21:53:55;;;;;;;6.27;3.10;;;;;;;11.09;51.95;96103.97;6260247;22;20159;-82
2023/05/18 21:56:26;;;;;;;5.40;3.00;;;;;;;11.12;51.95;96108.06;6281742;22;20172;-83
2023/05/18 21:58:53;;;;;;;7.57;2.90;;;;;;;11.03;52.24;96104.50;6285041;22;20140;-84
2023/05/18 22:01:24;;;;;;;6.37;2.37;;;;;;;11.03;52.69;96107.13;6260397;22;20183;-85
2023/05/18 22:04:01;;;;;;;5.80;2.70;;;;;;;10.96;52.76;96109.47;6287362;22;20156;-84
2023/05/18 22:06:30;;;;;;;7.17;2.93;;;;;;;10.90;52.97;96103.97;6259870;22;20185;-84
2023/05/18 22:08:58;;;;;;;6.90;2.87;;;;;;;10.89;53.04;96107.53;6261097;22;20267;-84
2023/05/18 22:12:01;;;;;;;8.40;2.67;;;;;;;10.93;53.38;96108.91;6288474;22;20239;-84
2023/05/18 22:14:27;;;;;;;9.53;2.80;;;;;;;10.77;53.46;96102.44;6287182;22;20159;-85
2023/05/18 22:16:55;;;;;;;6.30;2.70;;;;;;;10.88;53.29;96096.31;6287228;22;20156;-84
2023/05/18 22:19:29;;;;;;;5.90;2.70;;;;;;;10.94;53.38;96102.75;6267478;22;20160;-84
2023/05/18 22:22:22;;;;;;;6.43;2.67;;;;;;;10.80;53.75;96103.97;6294596;22;20246;-84
2023/05/18 22:24:53;;;;;;;9.47;2.70;;;;;;;10.87;53.89;96105.09;6270461;22;20159;-85
2023/05/18 22:27:26;;;;;;;7.27;2.87;;;;;;;10.81;54.09;96105.63;6264869;22;20160;-85
2023/05/18 22:29:51;;;;;;;12.53;3.03;;;;;;;10.83;54.24;96101.09;6265916;22;20156;-85
2023/05/18 22:32:25;;;;;;;6.90;2.70;;;;;;;10.72;54.80;96106.41;6290769;22;20250;-85
2023/05/18 22:34:54;;;;;;;7.63;2.73;;;;;;;10.75;54.99;96100.94;6290468;22;20223;-85
2023/05/18 22:37:45;;;;;;;10.23;3.50;;;;;;;10.81;54.70;96092.63;6315763;22;20152;-86
2023/05/18 22:40:23;;;;;;;6.63;2.80;;;;;;;10.71;55.60;96086.59;6289114;22;20166;-84
2023/05/18 22:43:01;;;;;;;5.37;3.27;;;;;;;10.74;55.09;96094.13;6290378;22;20151;-84
2023/05/18 22:45:29;;;;;;;7.17;2.80;;;;;;;10.68;55.61;96092.03;6266766;22;20216;-85
2023/05/18 22:47:55;;;;;;;7.03;2.93;;;;;;;10.73;55.60;96092.47;6265012;22;20164;-85
2023/05/18 22:50:29;;;;;;;8.20;3.13;;;;;;;10.72;55.78;96093.44;6264923;22;20180;-83
2023/05/18 22:52:57;;;;;;;7.90;2.87;;;;;;;10.71;55.83;96081.41;6292594;22;20157;-84
2023/05/18 22:55:25;;;;;;;6.80;2.93;;;;;;;10.72;55.73;96085.66;6291114;22;20187;-84
2023/05/18 22:57:56;;;;;;;6.83;2.87;;;;;;;10.67;56.16;96086.03;6263538;22;20771;-83
2023/05/18 23:00:35;;;;;;;6.87;2.47;;;;;;;10.76;55.66;96082.63;6265024;22;20179;-85
2023/05/18 23:03:07;;;;;;;6.60;3.00;;;;;;;10.79;55.39;96073.75;6292137;22;20243;-84
2023/05/18 23:05:32;;;;;;;5.87;2.73;;;;;;;10.75;55.95;96085.34;6265531;22;20148;-85
2023/05/18 23:08:05;;;;;;;4.57;2.50;;;;;;;10.85;55.62;96085.38;6265000;22;20160;-84
2023/05/18 23:10:47;;;;;;;7.43;2.47;;;;;;;10.88;55.31;96079.91;6316695;22;20168;-84
2023/05/18 23:13:14;;;;;;;5.30;3.03;;;;;;;10.78;55.65;96074.72;6284038;22;20183;-84
2023/05/18 23:16:04;;;;;;;;;;;;;;;;;;;;;
2023/05/18 23:18:53;;;;;;;6.43;2.60;;;;;;;10.89;54.95;96082.38;6258796;22;20541;-83
2023/05/18 23:21:47;;;;;;;5.23;2.30;;;;;;;10.87;55.82;96083.47;6256149;22;20210;-86
2023/05/18 23:24:14;;;;;;;5.73;2.70;;;;;;;10.89;55.29;96086.75;6283666;22;20157;-84
2023/05/18 23:26:43;;;;;;;7.80;3.13;;;;;;;10.59;55.40;96074.66;6226271;22;20156;-84
2023/05/18 23:29:11;;;;;;;10.33;3.47;;;;;;;10.68;55.68;96084.25;6231812;22;20160;-85
2023/05/18 23:31:39;;;;;;;10.37;3.30;;;;;;;10.58;56.30;96079.03;6257052;22;20237;-85
2023/05/18 23:34:18;;;;;;;7.03;3.50;;;;;;;10.42;57.10;96076.16;6256867;22;20198;-83
2023/05/18 23:36:47;;;;;;;7.97;3.23;;;;;;;10.46;57.16;96075.75;6258996;22;20145;-84
2023/05/18 23:39:16;;;;;;;5.07;2.90;;;;;;;10.38;57.70;96073.00;6258393;22;20153;-83
2023/05/18 23:41:50;;;;;;;6.53;2.80;;;;;;;10.35;58.47;96078.47;6260035;22;20175;-84
2023/05/18 23:44:29;;;;;;;3.90;2.27;;;;;;;10.37;58.50;96065.34;6257161;22;20168;-86
2023/05/18 23:47:01;;;;;;;4.50;2.50;;;;;;;10.20;58.87;96069.38;6233988;22;20210;-84
2023/05/18 23:49:26;;;;;;;4.93;2.57;;;;;;;10.25;59.56;96067.25;6258784;22;20175;-83
2023/05/18 23:51:55;;;;;;;11.57;3.63;;;;;;;10.21;59.42;96068.44;6259890;22;20179;-84
2023/05/18 23:54:26;;;;;;;3.43;2.37;;;;;;;10.12;59.86;96061.44;6233984;22;20153;-85
2023/05/18 23:56:55;;;;;;;5.37;2.30;;;;;;;10.11;59.07;96062.38;6257489;22;20160;-84
2023/05/18 23:59:29;;;;;;;4.47;2.63;;;;;;;10.08;59.38;96060.88;6258913;22;20266;-84
